sensor_id;sensor_type;location;lat;lon;timestamp;pressure;altitude;pressure_sealevel;temperature;humidity
28008;BME280;15333;50.010;20.020;2023-11-21T00:01:05;97974.00;;;7.57;72.00
28008;BME280;15333;50.010;20.020;2023-11-21T00:04:15;97975.44;;;7.61;71.73
28008;BME280;15333;50.010;20.020;2023-11-21T00:07:16;97980.06;;;7.59;72.74
28008;BME280;15333;50.010;20.020;2023-11-21T00:10:17;97983.91;;;7.55;72.66
28008;BME280;15333;50.010;20.020;2023-11-21T00:13:18;97988.25;;;7.56;73.08
28008;BME280;15333;50.010;20.020;2023-11-21T00:16:19;97984.00;;;7.53;74.03
28008;BME280;15333;50.010;20.020;2023-11-21T00:19:19;97998.16;;;7.54;74.66
28008;BME280;15333;50.010;20.020;2023-11-21T00:22:20;97986.19;;;7.48;75.10
28008;BME280;15333;50.010;20.020;2023-11-21T00:25:21;97992.34;;;7.48;74.86
28008;BME280;15333;50.010;20.020;2023-11-21T00:28:23;97996.50;;;7.53;75.30
28008;BME280;15333;50.010;20.020;2023-11-21T00:31:23;97989.69;;;7.48;75.81
28008;BME280;15333;50.010;20.020;2023-11-21T00:34:25;98001.09;;;7.51;76.12
28008;BME280;15333;50.010;20.020;2023-11-21T00:37:26;98001.81;;;7.53;75.54
28008;BME280;15333;50.010;20.020;2023-11-21T00:40:27;98010.03;;;7.50;75.76
28008;BME280;15333;50.010;20.020;2023-11-21T00:43:28;98012.34;;;7.54;76.17
28008;BME280;15333;50.010;20.020;2023-11-21T00:46:29;98005.72;;;7.60;76.01
28008;BME280;15333;50.010;20.020;2023-11-21T00:49:29;98007.88;;;7.55;75.94
28008;BME280;15333;50.010;20.020;2023-11-21T00:52:30;98000.63;;;7.57;76.56
28008;BME280;15333;50.010;20.020;2023-11-21T00:55:32;97994.06;;;7.61;76.85
28008;BME280;15333;50.010;20.020;2023-11-21T00:58:33;97998.91;;;7.56;76.72
28008;BME280;15333;50.010;20.020;2023-11-21T01:01:33;98004.25;;;7.56;77.61
28008;BME280;15333;50.010;20.020;2023-11-21T01:04:35;97998.69;;;7.59;78.02
28008;BME280;15333;50.010;20.020;2023-11-21T01:07:36;97998.91;;;7.56;78.08
28008;BME280;15333;50.010;20.020;2023-11-21T01:10:37;97999.75;;;7.56;79.08
28008;BME280;15333;50.010;20.020;2023-11-21T01:13:41;98005.19;;;7.55;79.05
28008;BME280;15333;50.010;20.020;2023-11-21T01:16:43;98012.72;;;7.61;78.94
28008;BME280;15333;50.010;20.020;2023-11-21T01:19:43;98016.38;;;7.60;79.73
28008;BME280;15333;50.010;20.020;2023-11-21T01:22:44;98005.94;;;7.57;78.97
28008;BME280;15333;50.010;20.020;2023-11-21T01:25:45;97997.94;;;7.57;79.17
28008;BME280;15333;50.010;20.020;2023-11-21T01:28:46;97997.69;;;7.48;78.10
28008;BME280;15333;50.010;20.020;2023-11-21T01:31:49;97999.16;;;7.53;78.19
28008;BME280;15333;50.010;20.020;2023-11-21T01:34:50;98001.69;;;7.54;77.72
28008;BME280;15333;50.010;20.020;2023-11-21T01:37:51;98000.25;;;7.50;78.13
28008;BME280;15333;50.010;20.020;2023-11-21T01:40:52;97998.91;;;7.56;77.51
28008;BME280;15333;50.010;20.020;2023-11-21T01:43:54;98009.56;;;7.56;77.18
28008;BME280;15333;50.010;20.020;2023-11-21T01:46:56;98007.25;;;7.51;77.04
28008;BME280;15333;50.010;20.020;2023-11-21T01:49:58;98003.28;;;7.57;76.51
28008;BME280;15333;50.010;20.020;2023-11-21T01:52:59;98004.50;;;7.53;76.46
28008;BME280;15333;50.010;20.020;2023-11-21T01:56:02;97999.38;;;7.50;76.49
28008;BME280;15333;50.010;20.020;2023-11-21T01:59:03;97997.47;;;7.52;76.80
28008;BME280;15333;50.010;20.020;2023-11-21T02:02:07;97990.44;;;7.51;76.29
28008;BME280;15333;50.010;20.020;2023-11-21T02:05:10;97999.16;;;7.53;75.55
28008;BME280;15333;50.010;20.020;2023-11-21T02:08:13;97995.13;;;7.47;75.60
28008;BME280;15333;50.010;20.020;2023-11-21T02:11:14;97997.47;;;7.52;75.33
28008;BME280;15333;50.010;20.020;2023-11-21T02:14:14;97998.66;;;7.47;75.10
28008;BME280;15333;50.010;20.020;2023-11-21T02:17:15;97992.13;;;7.52;75.23
28008;BME280;15333;50.010;20.020;2023-11-21T02:20:18;98001.19;;;7.49;74.16
28008;BME280;15333;50.010;20.020;2023-11-21T02:23:20;97999.16;;;7.53;73.75
28008;BME280;15333;50.010;20.020;2023-11-21T02:26:21;97999.38;;;7.50;72.85
28008;BME280;15333;50.010;20.020;2023-11-21T02:29:22;98000.13;;;7.52;72.63
28008;BME280;15333;50.010;20.020;2023-11-21T02:32:28;98001.09;;;7.51;72.62
28008;BME280;15333;50.010;20.020;2023-11-21T02:35:29;97997.69;;;7.48;71.76
28008;BME280;15333;50.010;20.020;2023-11-21T02:38:32;97997.94;;;7.45;71.80
28008;BME280;15333;50.010;20.020;2023-11-21T02:41:33;97993.44;;;7.46;71.64
28008;BME280;15333;50.010;20.020;2023-11-21T02:44:34;97989.81;;;7.47;72.34
28008;BME280;15333;50.010;20.020;2023-11-21T02:47:36;98004.50;;;7.53;72.87
28008;BME280;15333;50.010;20.020;2023-11-21T02:50:37;97998.75;;;7.46;73.87
28008;BME280;15333;50.010;20.020;2023-11-21T02:53:38;98000.34;;;7.48;74.69
28008;BME280;15333;50.010;20.020;2023-11-21T02:56:39;98003.47;;;7.42;74.51
28008;BME280;15333;50.010;20.020;2023-11-21T02:59:40;98012.19;;;7.44;73.93
28008;BME280;15333;50.010;20.020;2023-11-21T03:02:41;98006.88;;;7.44;74.37
28008;BME280;15333;50.010;20.020;2023-11-21T03:05:42;98012.91;;;7.46;75.03
28008;BME280;15333;50.010;20.020;2023-11-21T03:08:43;98016.44;;;7.47;74.74
28008;BME280;15333;50.010;20.020;2023-11-21T03:11:44;98019.44;;;7.42;74.96
28008;BME280;15333;50.010;20.020;2023-11-21T03:14:45;98012.69;;;7.50;75.10
28008;BME280;15333;50.010;20.020;2023-11-21T03:17:46;98023.44;;;7.48;75.87
28008;BME280;15333;50.010;20.020;2023-11-21T03:20:49;98021.16;;;7.43;75.70
28008;BME280;15333;50.010;20.020;2023-11-21T03:23:50;98022.84;;;7.44;76.89
28008;BME280;15333;50.010;20.020;2023-11-21T03:26:52;98021.38;;;7.40;76.48
28008;BME280;15333;50.010;20.020;2023-11-21T03:29:53;98014.34;;;7.39;76.65
28008;BME280;15333;50.010;20.020;2023-11-21T03:32:55;98019.91;;;7.36;76.89
28008;BME280;15333;50.010;20.020;2023-11-21T03:35:56;98021.63;;;7.37;77.02
28008;BME280;15333;50.010;20.020;2023-11-21T03:38:56;98027.41;;;7.31;76.69
28008;BME280;15333;50.010;20.020;2023-11-21T03:41:57;98026.09;;;7.37;76.66
28008;BME280;15333;50.010;20.020;2023-11-21T03:44:58;98023.53;;;7.35;77.44
28008;BME280;15333;50.010;20.020;2023-11-21T03:47:59;98028.84;;;7.35;77.70
28008;BME280;15333;50.010;20.020;2023-11-21T03:51:03;98033.97;;;7.38;78.74
28008;BME280;15333;50.010;20.020;2023-11-21T03:54:04;98029.47;;;7.39;79.92
28008;BME280;15333;50.010;20.020;2023-11-21T03:57:05;98024.28;;;7.37;79.88
28008;BME280;15333;50.010;20.020;2023-11-21T04:00:07;98028.63;;;7.38;80.00
28008;BME280;15333;50.010;20.020;2023-11-21T04:03:14;98025.34;;;7.35;80.01
28008;BME280;15333;50.010;20.020;2023-11-21T04:06:17;98023.75;;;7.32;80.05
28008;BME280;15333;50.010;20.020;2023-11-21T04:09:18;98027.41;;;7.31;79.68
28008;BME280;15333;50.010;20.020;2023-11-21T04:12:19;98027.41;;;7.31;80.17
28008;BME280;15333;50.010;20.020;2023-11-21T04:15:20;98031.03;;;7.30;80.49
28008;BME280;15333;50.010;20.020;2023-11-21T04:18:21;98026.41;;;7.32;79.83
28008;BME280;15333;50.010;20.020;2023-11-21T04:21:21;98028.69;;;7.26;80.71
28008;BME280;15333;50.010;20.020;2023-11-21T04:24:22;98029.81;;;7.34;81.01
28008;BME280;15333;50.010;20.020;2023-11-21T04:27:23;98030.16;;;7.30;80.59
28008;BME280;15333;50.010;20.020;2023-11-21T04:30:24;98026.41;;;7.32;80.62
28008;BME280;15333;50.010;20.020;2023-11-21T04:33:25;98032.47;;;7.34;80.85
28008;BME280;15333;50.010;20.020;2023-11-21T04:36:26;98029.31;;;7.29;80.68
28008;BME280;15333;50.010;20.020;2023-11-21T04:39:27;98039.50;;;7.35;80.96
28008;BME280;15333;50.010;20.020;2023-11-21T04:42:28;98040.91;;;7.28;80.12
28008;BME280;15333;50.010;20.020;2023-11-21T04:45:29;98045.03;;;7.32;80.33
28008;BME280;15333;50.010;20.020;2023-11-21T04:48:30;98045.28;;;7.29;80.59
28008;BME280;15333;50.010;20.020;2023-11-21T04:51:31;98054.44;;;7.25;80.09
28008;BME280;15333;50.010;20.020;2023-11-21T04:54:33;98047.69;;;7.32;80.51
28008;BME280;15333;50.010;20.020;2023-11-21T04:57:33;98052.53;;;7.27;80.54
28008;BME280;15333;50.010;20.020;2023-11-21T05:00:34;98060.84;;;7.23;79.29
28008;BME280;15333;50.010;20.020;2023-11-21T05:03:37;98054.91;;;7.19;79.26
28008;BME280;15333;50.010;20.020;2023-11-21T05:06:39;98052.88;;;7.23;78.76
28008;BME280;15333;50.010;20.020;2023-11-21T05:09:43;98057.28;;;7.11;77.98
28008;BME280;15333;50.010;20.020;2023-11-21T05:12:46;98060.91;;;7.10;77.08
28008;BME280;15333;50.010;20.020;2023-11-21T05:15:47;98068.16;;;7.08;75.68
28008;BME280;15333;50.010;20.020;2023-11-21T05:18:48;98069.22;;;7.05;75.42
28008;BME280;15333;50.010;20.020;2023-11-21T05:21:51;98068.38;;;7.05;74.78
28008;BME280;15333;50.010;20.020;2023-11-21T05:24:52;98075.63;;;7.03;75.78
28008;BME280;15333;50.010;20.020;2023-11-21T05:27:52;98083.38;;;7.06;75.39
28008;BME280;15333;50.010;20.020;2023-11-21T05:30:55;98085.19;;;7.05;75.92
28008;BME280;15333;50.010;20.020;2023-11-21T05:33:56;98082.19;;;7.10;75.68
28008;BME280;15333;50.010;20.020;2023-11-21T05:36:57;98081.97;;;7.13;76.06
28008;BME280;15333;50.010;20.020;2023-11-21T05:39:58;98090.06;;;7.12;75.78
28008;BME280;15333;50.010;20.020;2023-11-21T05:43:00;98094.97;;;7.05;75.93
28008;BME280;15333;50.010;20.020;2023-11-21T05:46:01;98102.84;;;7.06;75.15
28008;BME280;15333;50.010;20.020;2023-11-21T05:49:02;98108.06;;;7.08;74.93
28008;BME280;15333;50.010;20.020;2023-11-21T05:52:03;98109.97;;;7.06;74.67
28008;BME280;15333;50.010;20.020;2023-11-21T05:55:06;98114.03;;;6.99;74.34
28008;BME280;15333;50.010;20.020;2023-11-21T05:58:08;98121.41;;;6.95;74.62
28008;BME280;15333;50.010;20.020;2023-11-21T06:01:09;98119.25;;;7.00;74.20
28008;BME280;15333;50.010;20.020;2023-11-21T06:04:13;98118.41;;;7.00;74.03
28008;BME280;15333;50.010;20.020;2023-11-21T06:07:15;98115.00;;;6.98;73.23
28008;BME280;15333;50.010;20.020;2023-11-21T06:10:16;98122.25;;;6.96;72.64
28008;BME280;15333;50.010;20.020;2023-11-21T06:13:18;98128.84;;;7.03;72.04
28008;BME280;15333;50.010;20.020;2023-11-21T06:16:25;98139.69;;;7.00;71.86
28008;BME280;15333;50.010;20.020;2023-11-21T06:19:26;98135.22;;;7.00;72.39
28008;BME280;15333;50.010;20.020;2023-11-21T06:22:26;98144.81;;;7.03;72.52
28008;BME280;15333;50.010;20.020;2023-11-21T06:25:27;98135.13;;;7.02;72.37
28008;BME280;15333;50.010;20.020;2023-11-21T06:28:28;98132.56;;;7.00;72.01
28008;BME280;15333;50.010;20.020;2023-11-21T06:31:30;98135.63;;;7.07;71.96
28008;BME280;15333;50.010;20.020;2023-11-21T06:34:33;98146.47;;;7.04;72.66
28008;BME280;15333;50.010;20.020;2023-11-21T06:37:34;98135.84;;;7.04;72.60
28008;BME280;15333;50.010;20.020;2023-11-21T06:40:34;98147.72;;;7.11;72.32
28008;BME280;15333;50.010;20.020;2023-11-21T06:43:35;98149.34;;;7.14;72.12
28008;BME280;15333;50.010;20.020;2023-11-21T06:46:36;98154.25;;;7.07;72.09
28008;BME280;15333;50.010;20.020;2023-11-21T06:49:39;98158.16;;;7.14;72.55
28008;BME280;15333;50.010;20.020;2023-11-21T06:52:39;98155.00;;;7.09;72.81
28008;BME280;15333;50.010;20.020;2023-11-21T06:55:40;98159.03;;;7.15;73.45
28008;BME280;15333;50.010;20.020;2023-11-21T06:58:41;98150.94;;;7.16;73.53
28008;BME280;15333;50.010;20.020;2023-11-21T07:01:42;98163.28;;;7.17;74.17
28008;BME280;15333;50.010;20.020;2023-11-21T07:04:45;98155.16;;;7.19;74.61
28008;BME280;15333;50.010;20.020;2023-11-21T07:07:47;98156.03;;;7.19;75.03
28008;BME280;15333;50.010;20.020;2023-11-21T07:10:48;98161.66;;;7.27;75.33
28008;BME280;15333;50.010;20.020;2023-11-21T07:13:49;98160.47;;;7.31;75.44
28008;BME280;15333;50.010;20.020;2023-11-21T07:16:51;98167.91;;;7.26;75.51
28008;BME280;15333;50.010;20.020;2023-11-21T07:19:53;98162.84;;;7.23;75.71
28008;BME280;15333;50.010;20.020;2023-11-21T07:22:55;98161.66;;;7.27;75.85
28008;BME280;15333;50.010;20.020;2023-11-21T07:25:56;98165.06;;;7.29;75.92
28008;BME280;15333;50.010;20.020;2023-11-21T07:28:58;98173.03;;;7.29;76.21
28008;BME280;15333;50.010;20.020;2023-11-21T07:31:58;98177.56;;;7.40;76.49
28008;BME280;15333;50.010;20.020;2023-11-21T07:35:00;98174.28;;;7.36;77.49
28008;BME280;15333;50.010;20.020;2023-11-21T07:38:02;98176.44;;;7.31;77.07
28008;BME280;15333;50.010;20.020;2023-11-21T07:41:04;98186.66;;;7.37;76.88
28008;BME280;15333;50.010;20.020;2023-11-21T07:44:05;98183.75;;;7.40;77.65
28008;BME280;15333;50.010;20.020;2023-11-21T07:47:06;98180.38;;;7.38;77.24
28008;BME280;15333;50.010;20.020;2023-11-21T07:50:08;98184.84;;;7.25;77.37
28008;BME280;15333;50.010;20.020;2023-11-21T07:53:09;98185.38;;;7.30;77.04
28008;BME280;15333;50.010;20.020;2023-11-21T07:56:10;98188.25;;;7.27;76.10
28008;BME280;15333;50.010;20.020;2023-11-21T07:59:11;98189.22;;;7.26;75.89
28008;BME280;15333;50.010;20.020;2023-11-21T08:02:13;98180.72;;;7.21;75.62
28008;BME280;15333;50.010;20.020;2023-11-21T08:05:13;98189.84;;;7.30;75.82
28008;BME280;15333;50.010;20.020;2023-11-21T08:08:16;98196.03;;;7.30;75.51
28008;BME280;15333;50.010;20.020;2023-11-21T08:11:18;98195.63;;;7.24;75.88
28008;BME280;15333;50.010;20.020;2023-11-21T08:14:20;98201.81;;;7.24;75.12
28008;BME280;15333;50.010;20.020;2023-11-21T08:17:21;98207.53;;;7.18;75.26
28008;BME280;15333;50.010;20.020;2023-11-21T08:20:22;98206.69;;;7.18;75.01
28008;BME280;15333;50.010;20.020;2023-11-21T08:23:23;98199.34;;;7.21;75.36
28008;BME280;15333;50.010;20.020;2023-11-21T08:26:27;98197.88;;;7.17;75.20
28008;BME280;15333;50.010;20.020;2023-11-21T08:29:28;98201.56;;;7.27;75.15
28008;BME280;15333;50.010;20.020;2023-11-21T08:32:29;98199.44;;;7.20;75.08
28008;BME280;15333;50.010;20.020;2023-11-21T08:35:34;98201.81;;;7.24;75.66
28008;BME280;15333;50.010;20.020;2023-11-21T08:38:35;98210.31;;;7.29;75.39
28008;BME280;15333;50.010;20.020;2023-11-21T08:41:39;98207.75;;;7.28;75.81
28008;BME280;15333;50.010;20.020;2023-11-21T08:44:40;98220.94;;;7.29;76.97
28008;BME280;15333;50.010;20.020;2023-11-21T08:47:41;98223.09;;;7.24;76.33
28008;BME280;15333;50.010;20.020;2023-11-21T08:50:44;98218.50;;;7.26;77.20
28008;BME280;15333;50.010;20.020;2023-11-21T08:53:45;98224.34;;;7.31;77.20
28008;BME280;15333;50.010;20.020;2023-11-21T08:56:46;98217.75;;;7.37;77.30
28008;BME280;15333;50.010;20.020;2023-11-21T08:59:47;98220.50;;;7.35;77.83
28008;BME280;15333;50.010;20.020;2023-11-21T09:02:48;98218.16;;;7.43;78.54
28008;BME280;15333;50.010;20.020;2023-11-21T09:05:49;98221.31;;;7.48;79.38
28008;BME280;15333;50.010;20.020;2023-11-21T09:08:50;98213.63;;;7.57;79.05
28008;BME280;15333;50.010;20.020;2023-11-21T09:11:51;98212.38;;;7.50;79.30
28008;BME280;15333;50.010;20.020;2023-11-21T09:14:52;98218.31;;;7.53;79.27
28008;BME280;15333;50.010;20.020;2023-11-21T09:17:53;98213.63;;;7.57;79.13
28008;BME280;15333;50.010;20.020;2023-11-21T09:20:54;98213.63;;;7.57;79.16
28008;BME280;15333;50.010;20.020;2023-11-21T09:23:54;98213.19;;;7.63;79.45
28008;BME280;15333;50.010;20.020;2023-11-21T09:26:56;98218.91;;;7.69;79.42
28008;BME280;15333;50.010;20.020;2023-11-21T09:29:56;98205.47;;;7.71;79.96
28008;BME280;15333;50.010;20.020;2023-11-21T09:32:58;98212.06;;;7.78;79.27
28008;BME280;15333;50.010;20.020;2023-11-21T09:36:00;98214.50;;;7.81;79.97
28008;BME280;15333;50.010;20.020;2023-11-21T09:39:01;98212.63;;;7.94;80.45
28008;BME280;15333;50.010;20.020;2023-11-21T09:42:15;98214.50;;;7.81;81.33
28008;BME280;15333;50.010;20.020;2023-11-21T09:45:32;98216.63;;;7.76;80.53
28008;BME280;15333;50.010;20.020;2023-11-21T09:48:35;98218.44;;;7.88;79.45
28008;BME280;15333;50.010;20.020;2023-11-21T09:51:43;98220.81;;;7.80;80.32
28008;BME280;15333;50.010;20.020;2023-11-21T09:54:45;98217.84;;;7.72;80.18
28008;BME280;15333;50.010;20.020;2023-11-21T09:57:47;98215.38;;;7.69;79.65
28008;BME280;15333;50.010;20.020;2023-11-21T10:00:53;98214.44;;;7.70;79.65
28008;BME280;15333;50.010;20.020;2023-11-21T10:03:54;98223.91;;;7.74;79.22
28008;BME280;15333;50.010;20.020;2023-11-21T10:06:57;98221.69;;;7.68;79.59
28008;BME280;15333;50.010;20.020;2023-11-21T10:09:59;98222.78;;;7.65;79.29
28008;BME280;15333;50.010;20.020;2023-11-21T10:13:03;98229.41;;;7.60;78.71
28008;BME280;15333;50.010;20.020;2023-11-21T10:16:07;98220.81;;;7.67;78.20
28008;BME280;15333;50.010;20.020;2023-11-21T10:19:12;98231.47;;;7.80;78.17
28008;BME280;15333;50.010;20.020;2023-11-21T10:22:16;98230.09;;;7.98;80.09
28008;BME280;15333;50.010;20.020;2023-11-21T10:25:18;98225.53;;;8.11;80.50
28008;BME280;15333;50.010;20.020;2023-11-21T10:28:21;98227.63;;;8.19;81.16
28008;BME280;15333;50.010;20.020;2023-11-21T10:31:21;98226.84;;;8.30;81.60
28008;BME280;15333;50.010;20.020;2023-11-21T10:34:24;98215.28;;;8.42;82.03
28008;BME280;15333;50.010;20.020;2023-11-21T10:37:28;98217.25;;;8.51;82.01
28008;BME280;15333;50.010;20.020;2023-11-21T10:40:29;98213.75;;;8.61;81.86
28008;BME280;15333;50.010;20.020;2023-11-21T10:43:30;98213.41;;;8.66;82.17
28008;BME280;15333;50.010;20.020;2023-11-21T10:46:31;98214.69;;;8.49;82.01
28008;BME280;15333;50.010;20.020;2023-11-21T10:49:32;98208.13;;;8.42;81.82
28008;BME280;15333;50.010;20.020;2023-11-21T10:52:33;98216.13;;;8.42;81.99
28008;BME280;15333;50.010;20.020;2023-11-21T10:55:36;98213.81;;;8.38;82.41
28008;BME280;15333;50.010;20.020;2023-11-21T10:58:38;98220.28;;;8.22;82.72
28008;BME280;15333;50.010;20.020;2023-11-21T11:01:39;98220.66;;;8.05;82.72
28008;BME280;15333;50.010;20.020;2023-11-21T11:04:40;98217.03;;;8.06;82.18
28008;BME280;15333;50.010;20.020;2023-11-21T11:07:42;98217.03;;;8.06;81.98
28008;BME280;15333;50.010;20.020;2023-11-21T11:10:50;98217.25;;;8.03;81.64
28008;BME280;15333;50.010;20.020;2023-11-21T11:13:51;98224.28;;;8.04;81.87
28008;BME280;15333;50.010;20.020;2023-11-21T11:16:54;98225.97;;;7.94;81.86
28008;BME280;15333;50.010;20.020;2023-11-21T11:19:56;98219.44;;;7.98;81.96
28008;BME280;15333;50.010;20.020;2023-11-21T11:23:08;98215.75;;;7.88;82.31
28008;BME280;15333;50.010;20.020;2023-11-21T11:26:46;98219.69;;;7.95;81.49
28008;BME280;15333;50.010;20.020;2023-11-21T11:30:18;98218.06;;;7.93;81.67
28008;BME280;15333;50.010;20.020;2023-11-21T11:37:00;98221.13;;;7.99;82.14
28008;BME280;15333;50.010;20.020;2023-11-21T11:40:06;98213.19;;;8.10;81.45
28008;BME280;15333;50.010;20.020;2023-11-21T11:43:07;98226.25;;;8.02;81.72
28008;BME280;15333;50.010;20.020;2023-11-21T11:46:08;98227.09;;;8.03;81.54
28008;BME280;15333;50.010;20.020;2023-11-21T11:49:09;98230.03;;;8.11;82.04
28008;BME280;15333;50.010;20.020;2023-11-21T11:55:33;98233.59;;;8.22;81.93
28008;BME280;15333;50.010;20.020;2023-11-21T11:58:37;98224.25;;;8.41;81.82
28008;BME280;15333;50.010;20.020;2023-11-21T12:01:45;98232.50;;;8.38;82.43
28008;BME280;15333;50.010;20.020;2023-11-21T12:04:46;98237.50;;;8.30;82.51
28008;BME280;15333;50.010;20.020;2023-11-21T12:10:48;98231.25;;;8.31;82.46
28008;BME280;15333;50.010;20.020;2023-11-21T12:13:49;98240.69;;;8.35;82.48
28008;BME280;15333;50.010;20.020;2023-11-21T12:16:52;98227.38;;;8.35;82.83
28008;BME280;15333;50.010;20.020;2023-11-21T12:20:01;98230.31;;;8.43;82.63
28008;BME280;15333;50.010;20.020;2023-11-21T12:23:05;98230.84;;;8.59;82.12
28008;BME280;15333;50.010;20.020;2023-11-21T12:26:06;98222.72;;;8.60;82.32
28008;BME280;15333;50.010;20.020;2023-11-21T12:29:07;98227.63;;;8.78;82.52
28008;BME280;15333;50.010;20.020;2023-11-21T12:32:11;98221.63;;;8.63;83.32
28008;BME280;15333;50.010;20.020;2023-11-21T12:35:12;98227.94;;;8.62;82.74
28008;BME280;15333;50.010;20.020;2023-11-21T12:38:13;98229.91;;;8.71;82.49
28008;BME280;15333;50.010;20.020;2023-11-21T12:41:16;98233.75;;;8.67;82.21
28008;BME280;15333;50.010;20.020;2023-11-21T12:44:18;98236.69;;;8.64;82.05
28008;BME280;15333;50.010;20.020;2023-11-21T12:47:19;98229.53;;;8.64;81.38
28008;BME280;15333;50.010;20.020;2023-11-21T12:50:30;98230.41;;;8.76;81.25
28008;BME280;15333;50.010;20.020;2023-11-21T12:53:33;98235.28;;;8.93;81.68
28008;BME280;15333;50.010;20.020;2023-11-21T12:56:39;98228.41;;;8.67;81.80
28008;BME280;15333;50.010;20.020;2023-11-21T12:59:40;98230.84;;;8.59;81.39
28008;BME280;15333;50.010;20.020;2023-11-21T13:02:43;98236.13;;;8.37;81.64
28008;BME280;15333;50.010;20.020;2023-11-21T13:05:45;98228.38;;;8.45;81.21
28008;BME280;15333;50.010;20.020;2023-11-21T13:08:47;98234.78;;;8.42;81.44
28008;BME280;15333;50.010;20.020;2023-11-21T13:11:47;98243.88;;;8.40;81.79
28008;BME280;15333;50.010;20.020;2023-11-21T13:14:48;98241.91;;;8.31;82.00
28008;BME280;15333;50.010;20.020;2023-11-21T13:17:50;98243.47;;;8.33;81.72
28008;BME280;15333;50.010;20.020;2023-11-21T13:20:56;98247.16;;;8.19;81.49
28008;BME280;15333;50.010;20.020;2023-11-21T13:23:58;98247.91;;;8.21;81.21
28008;BME280;15333;50.010;20.020;2023-11-21T13:26:59;98247.91;;;8.21;81.62
28008;BME280;15333;50.010;20.020;2023-11-21T13:29:59;98255.16;;;8.19;81.60
28008;BME280;15333;50.010;20.020;2023-11-21T13:33:02;98247.44;;;8.27;81.91
28008;BME280;15333;50.010;20.020;2023-11-21T13:36:06;98258.50;;;8.34;81.71
28008;BME280;15333;50.010;20.020;2023-11-21T13:39:09;98261.50;;;8.30;81.54
28008;BME280;15333;50.010;20.020;2023-11-21T13:42:15;98257.59;;;8.46;81.71
28008;BME280;15333;50.010;20.020;2023-11-21T13:45:17;98263.75;;;8.47;81.77
28008;BME280;15333;50.010;20.020;2023-11-21T13:48:20;98264.22;;;8.41;81.34
28008;BME280;15333;50.010;20.020;2023-11-21T13:51:28;98262.78;;;8.37;81.01
28008;BME280;15333;50.010;20.020;2023-11-21T13:54:40;98259.16;;;8.25;81.87
28008;BME280;15333;50.010;20.020;2023-11-21T13:57:42;98269.38;;;8.07;81.21
28008;BME280;15333;50.010;20.020;2023-11-21T14:00:50;98266.53;;;7.98;81.78
28008;BME280;15333;50.010;20.020;2023-11-21T14:04:03;98270.09;;;7.85;81.42
28008;BME280;15333;50.010;20.020;2023-11-21T14:07:21;98274.53;;;7.74;81.40
28008;BME280;15333;50.010;20.020;2023-11-21T14:10:32;98275.25;;;7.76;81.79
28008;BME280;15333;50.010;20.020;2023-11-21T14:13:49;98287.84;;;7.74;81.55
28008;BME280;15333;50.010;20.020;2023-11-21T14:16:51;98274.53;;;7.74;81.27
28008;BME280;15333;50.010;20.020;2023-11-21T14:19:52;98279.09;;;7.72;81.43
28008;BME280;15333;50.010;20.020;2023-11-21T14:22:56;98289.34;;;7.65;81.78
28008;BME280;15333;50.010;20.020;2023-11-21T14:25:56;98292.47;;;7.59;81.29
28008;BME280;15333;50.010;20.020;2023-11-21T14:28:59;98287.13;;;7.46;81.49
28008;BME280;15333;50.010;20.020;2023-11-21T14:31:59;98286.72;;;7.40;81.95
28008;BME280;15333;50.010;20.020;2023-11-21T14:35:00;98291.97;;;7.29;81.56
28008;BME280;15333;50.010;20.020;2023-11-21T14:38:01;98297.81;;;7.21;81.87
28008;BME280;15333;50.010;20.020;2023-11-21T14:41:06;98301.88;;;7.14;81.49
28008;BME280;15333;50.010;20.020;2023-11-21T14:44:08;98307.63;;;7.08;81.62
28008;BME280;15333;50.010;20.020;2023-11-21T14:47:12;98305.28;;;7.16;81.53
28008;BME280;15333;50.010;20.020;2023-11-21T14:50:15;98309.50;;;7.19;81.89
28008;BME280;15333;50.010;20.020;2023-11-21T14:53:36;98313.59;;;7.24;81.82
28008;BME280;15333;50.010;20.020;2023-11-21T14:56:43;98312.31;;;7.17;82.21
28008;BME280;15333;50.010;20.020;2023-11-21T14:59:49;98320.59;;;7.25;81.99
28008;BME280;15333;50.010;20.020;2023-11-21T15:02:55;98321.00;;;7.19;81.96
28008;BME280;15333;50.010;20.020;2023-11-21T15:05:56;98322.72;;;7.20;82.28
28008;BME280;15333;50.010;20.020;2023-11-21T15:08:57;98329.31;;;7.27;82.56
28008;BME280;15333;50.010;20.020;2023-11-21T15:12:08;98331.97;;;7.27;82.50
28008;BME280;15333;50.010;20.020;2023-11-21T15:15:15;98335.16;;;7.32;82.36
28008;BME280;15333;50.010;20.020;2023-11-21T15:18:18;98331.56;;;7.33;82.75
28008;BME280;15333;50.010;20.020;2023-11-21T15:21:20;98343.91;;;7.34;82.92
28008;BME280;15333;50.010;20.020;2023-11-21T15:24:22;98341.03;;;7.37;82.67
28008;BME280;15333;50.010;20.020;2023-11-21T15:27:23;98340.38;;;7.34;82.77
28008;BME280;15333;50.010;20.020;2023-11-21T15:30:25;98344.44;;;7.39;82.88
28008;BME280;15333;50.010;20.020;2023-11-21T15:33:26;98338.91;;;7.42;82.68
28008;BME280;15333;50.010;20.020;2023-11-21T15:36:28;98346.56;;;7.34;82.49
28008;BME280;15333;50.010;20.020;2023-11-21T15:39:29;98355.31;;;7.36;82.46
28008;BME280;15333;50.010;20.020;2023-11-21T15:42:32;98356.34;;;7.46;82.25
28008;BME280;15333;50.010;20.020;2023-11-21T15:45:33;98354.34;;;7.37;82.20
28008;BME280;15333;50.010;20.020;2023-11-21T15:48:34;98358.41;;;7.30;82.13
28008;BME280;15333;50.010;20.020;2023-11-21T15:51:36;98362.78;;;7.31;82.13
28008;BME280;15333;50.010;20.020;2023-11-21T15:54:37;98366.38;;;7.30;82.37
28008;BME280;15333;50.010;20.020;2023-11-21T15:57:38;98369.56;;;7.35;81.80
28008;BME280;15333;50.010;20.020;2023-11-21T16:00:39;98370.84;;;7.42;82.53
28008;BME280;15333;50.010;20.020;2023-11-21T16:03:42;98372.31;;;7.46;82.18
28008;BME280;15333;50.010;20.020;2023-11-21T16:06:47;98368.94;;;7.44;82.23
28008;BME280;15333;50.010;20.020;2023-11-21T16:09:48;98365.72;;;7.39;82.51
28008;BME280;15333;50.010;20.020;2023-11-21T16:12:50;98372.34;;;7.21;81.84
28008;BME280;15333;50.010;20.020;2023-11-21T16:15:51;98371.56;;;7.19;81.83